sensor_id;sensor_type;location;lat;lon;timestamp;pressure;altitude;pressure_sealevel;temperature;humidity
22743;BME280;11538;48.884;8.696;2023-05-24T00:00:05;99108.47;;;15.16;73.78
22743;BME280;11538;48.884;8.696;2023-05-24T00:02:32;99106.03;;;15.14;74.04
22743;BME280;11538;48.884;8.696;2023-05-24T00:04:59;99102.69;;;15.09;73.63
22743;BME280;11538;48.884;8.696;2023-05-24T00:07:27;99100.25;;;15.07;73.84
22743;BME280;11538;48.884;8.696;2023-05-24T00:09:53;99094.31;;;15.05;73.95
22743;BME280;11538;48.884;8.696;2023-05-24T00:12:21;99100.75;;;15.00;74.46
22743;BME280;11538;48.884;8.696;2023-05-24T00:14:48;99097.72;;;14.93;73.83
22743;BME280;11538;48.884;8.696;2023-05-24T00:17:17;99100.91;;;14.95;74.13
22743;BME280;11538;48.884;8.696;2023-05-24T00:19:44;99095.94;;;14.97;73.90
22743;BME280;11538;48.884;8.696;2023-05-24T00:22:11;99097.06;;;14.96;74.20
22743;BME280;11538;48.884;8.696;2023-05-24T00:24:42;99096.41;;;14.99;74.13
22743;BME280;11538;48.884;8.696;2023-05-24T00:27:09;99101.25;;;15.02;73.66
22743;BME280;11538;48.884;8.696;2023-05-24T00:29:37;99096.75;;;15.06;73.26
22743;BME280;11538;48.884;8.696;2023-05-24T00:32:04;99093.03;;;15.02;74.01
22743;BME280;11538;48.884;8.696;2023-05-24T00:34:32;99098.50;;;14.94;74.21
22743;BME280;11538;48.884;8.696;2023-05-24T00:36:59;99094.16;;;14.93;74.62
22743;BME280;11538;48.884;8.696;2023-05-24T00:39:26;99095.47;;;14.95;75.12
22743;BME280;11538;48.884;8.696;2023-05-24T00:41:56;99088.06;;;15.04;75.24
22743;BME280;11538;48.884;8.696;2023-05-24T00:44:22;99084.38;;;15.00;74.81
22743;BME280;11538;48.884;8.696;2023-05-24T00:46:49;99089.34;;;14.98;74.58
22743;BME280;11538;48.884;8.696;2023-05-24T00:49:17;99092.25;;;14.93;75.17
22743;BME280;11538;48.884;8.696;2023-05-24T00:51:45;99086.78;;;14.93;75.11
22743;BME280;11538;48.884;8.696;2023-05-24T00:54:13;99089.34;;;14.89;74.72
22743;BME280;11538;48.884;8.696;2023-05-24T00:56:42;99084.38;;;14.83;75.52
22743;BME280;11538;48.884;8.696;2023-05-24T00:59:09;99078.44;;;14.81;75.60
22743;BME280;11538;48.884;8.696;2023-05-24T01:01:36;99077.78;;;14.84;75.89
22743;BME280;11538;48.884;8.696;2023-05-24T01:04:03;99079.69;;;14.83;75.42
22743;BME280;11538;48.884;8.696;2023-05-24T01:06:43;99074.09;;;14.80;74.94
22743;BME280;11538;48.884;8.696;2023-05-24T01:10:03;99072.47;;;14.87;75.10
22743;BME280;11538;48.884;8.696;2023-05-24T01:13:18;99069.44;;;14.89;75.38
22743;BME280;11538;48.884;8.696;2023-05-24T01:15:58;99076.00;;;14.88;75.53
22743;BME280;11538;48.884;8.696;2023-05-24T01:18:39;99081.16;;;14.81;75.04
22743;BME280;11538;48.884;8.696;2023-05-24T01:27:07;99074.38;;;14.69;75.98
22743;BME280;11538;48.884;8.696;2023-05-24T01:29:35;99079.53;;;14.71;75.35
22743;BME280;11538;48.884;8.696;2023-05-24T01:32:03;99070.41;;;14.75;75.92
22743;BME280;11538;48.884;8.696;2023-05-24T01:34:31;99083.22;;;14.66;75.54
22743;BME280;11538;48.884;8.696;2023-05-24T01:36:58;99077.56;;;14.62;76.10
22743;BME280;11538;48.884;8.696;2023-05-24T01:39:28;99075.00;;;14.57;76.43
22743;BME280;11538;48.884;8.696;2023-05-24T01:42:23;99080.63;;;14.61;77.23
22743;BME280;11538;48.884;8.696;2023-05-24T01:45:15;99079.03;;;14.60;77.30
22743;BME280;11538;48.884;8.696;2023-05-24T01:48:10;99072.09;;;14.62;76.14
22743;BME280;11538;48.884;8.696;2023-05-24T01:50:52;99078.19;;;14.51;77.30
22743;BME280;11538;48.884;8.696;2023-05-24T01:53:29;99082.38;;;14.48;77.27
22743;BME280;11538;48.884;8.696;2023-05-24T01:56:01;99080.13;;;14.50;77.73
22743;BME280;11538;48.884;8.696;2023-05-24T01:58:31;99086.06;;;14.52;77.41
22743;BME280;11538;48.884;8.696;2023-05-24T02:00:59;99082.03;;;14.50;76.67
22743;BME280;11538;48.884;8.696;2023-05-24T02:03:26;99094.06;;;14.48;77.41
22743;BME280;11538;48.884;8.696;2023-05-24T02:05:53;99100.00;;;14.51;77.60
22743;BME280;11538;48.884;8.696;2023-05-24T02:08:20;99094.56;;;14.51;77.04
22743;BME280;11538;48.884;8.696;2023-05-24T02:10:47;99099.53;;;14.48;77.04
22743;BME280;11538;48.884;8.696;2023-05-24T02:13:14;99099.88;;;14.47;77.28
22743;BME280;11538;48.884;8.696;2023-05-24T02:15:47;99092.81;;;14.46;77.28
22743;BME280;11538;48.884;8.696;2023-05-24T02:18:14;99099.38;;;14.45;77.52
22743;BME280;11538;48.884;8.696;2023-05-24T02:20:44;99096.31;;;14.46;77.62
22743;BME280;11538;48.884;8.696;2023-05-24T02:23:12;99094.72;;;14.45;76.65
22743;BME280;11538;48.884;8.696;2023-05-24T02:25:43;99098.41;;;14.41;76.29
22743;BME280;11538;48.884;8.696;2023-05-24T02:28:09;99099.19;;;14.41;76.10
22743;BME280;11538;48.884;8.696;2023-05-24T02:30:36;99094.38;;;14.38;75.96
22743;BME280;11538;48.884;8.696;2023-05-24T02:33:04;99092.47;;;14.39;75.86
22743;BME280;11538;48.884;8.696;2023-05-24T02:35:31;99094.56;;;14.42;75.63
22743;BME280;11538;48.884;8.696;2023-05-24T02:37:59;99093.44;;;14.43;75.73
22743;BME280;11538;48.884;8.696;2023-05-24T02:40:27;99095.81;;;14.36;76.26
22743;BME280;11538;48.884;8.696;2023-05-24T02:42:53;99096.81;;;14.40;75.92
22743;BME280;11538;48.884;8.696;2023-05-24T02:45:20;99097.28;;;14.42;75.94
22743;BME280;11538;48.884;8.696;2023-05-24T02:47:47;99095.03;;;14.44;75.95
22743;BME280;11538;48.884;8.696;2023-05-24T02:50:15;99094.38;;;14.38;75.20
22743;BME280;11538;48.884;8.696;2023-05-24T02:52:42;99093.41;;;14.34;76.13
22743;BME280;11538;48.884;8.696;2023-05-24T02:55:09;99096.75;;;14.31;75.90
22743;BME280;11538;48.884;8.696;2023-05-24T02:57:37;99095.97;;;14.30;75.31
22743;BME280;11538;48.884;8.696;2023-05-24T03:00:05;99095.78;;;14.27;76.09
22743;BME280;11538;48.884;8.696;2023-05-24T03:02:35;99098.66;;;14.22;76.82
22743;BME280;11538;48.884;8.696;2023-05-24T03:05:04;99102.50;;;14.21;76.48
22743;BME280;11538;48.884;8.696;2023-05-24T03:07:32;99094.81;;;14.23;77.02
22743;BME280;11538;48.884;8.696;2023-05-24T03:09:59;99092.91;;;14.23;77.08
22743;BME280;11538;48.884;8.696;2023-05-24T03:12:26;99097.88;;;14.21;76.99
22743;BME280;11538;48.884;8.696;2023-05-24T03:14:52;99097.03;;;14.12;76.78
22743;BME280;11538;48.884;8.696;2023-05-24T03:17:19;99088.31;;;14.01;78.22
22743;BME280;11538;48.884;8.696;2023-05-24T03:19:46;99086.38;;;13.93;77.64
22743;BME280;11538;48.884;8.696;2023-05-24T03:22:13;99087.00;;;13.89;78.18
22743;BME280;11538;48.884;8.696;2023-05-24T03:24:40;99085.44;;;13.97;78.25
22743;BME280;11538;48.884;8.696;2023-05-24T03:27:07;99084.63;;;13.97;78.04
22743;BME280;11538;48.884;8.696;2023-05-24T03:29:34;99079.16;;;13.97;78.81
22743;BME280;11538;48.884;8.696;2023-05-24T03:32:01;99083.84;;;13.96;78.61
22743;BME280;11538;48.884;8.696;2023-05-24T03:34:28;99079.34;;;14.00;77.92
22743;BME280;11538;48.884;8.696;2023-05-24T03:36:56;99080.63;;;13.94;78.11
22743;BME280;11538;48.884;8.696;2023-05-24T03:39:23;99084.09;;;13.86;78.00
22743;BME280;11538;48.884;8.696;2023-05-24T03:41:49;99079.25;;;13.83;78.45
22743;BME280;11538;48.884;8.696;2023-05-24T03:44:16;99077.03;;;13.85;78.52
22743;BME280;11538;48.884;8.696;2023-05-24T03:46:43;99071.41;;;13.81;78.65
22743;BME280;11538;48.884;8.696;2023-05-24T03:49:10;99078.91;;;13.75;78.76
22743;BME280;11538;48.884;8.696;2023-05-24T03:51:37;99080.22;;;13.78;79.30
22743;BME280;11538;48.884;8.696;2023-05-24T03:54:04;99084.56;;;13.79;79.01
22743;BME280;11538;48.884;8.696;2023-05-24T03:56:31;99079.09;;;13.79;78.80
22743;BME280;11538;48.884;8.696;2023-05-24T03:58:59;99071.56;;;13.76;79.23
22743;BME280;11538;48.884;8.696;2023-05-24T04:01:29;99075.19;;;13.71;79.30
22743;BME280;11538;48.884;8.696;2023-05-24T04:04:03;99073.28;;;13.72;79.71
22743;BME280;11538;48.884;8.696;2023-05-24T04:06:30;99074.91;;;13.73;79.64
22743;BME280;11538;48.884;8.696;2023-05-24T04:08:58;99081.91;;;13.65;79.89
22743;BME280;11538;48.884;8.696;2023-05-24T04:11:27;99078.06;;;13.66;80.74
22743;BME280;11538;48.884;8.696;2023-05-24T04:13:55;99079.03;;;13.70;79.81
22743;BME280;11538;48.884;8.696;2023-05-24T04:16:23;99081.41;;;13.63;80.05
22743;BME280;11538;48.884;8.696;2023-05-24T04:18:53;99083.03;;;13.64;80.14
22743;BME280;11538;48.884;8.696;2023-05-24T04:21:20;99086.69;;;13.59;81.16
22743;BME280;11538;48.884;8.696;2023-05-24T04:23:47;99087.50;;;13.60;81.08
22743;BME280;11538;48.884;8.696;2023-05-24T04:26:14;99082.03;;;13.60;81.46
22743;BME280;11538;48.884;8.696;2023-05-24T04:28:41;99090.09;;;13.65;81.86
22743;BME280;11538;48.884;8.696;2023-05-24T04:31:08;99087.34;;;13.65;81.77
22743;BME280;11538;48.884;8.696;2023-05-24T04:33:36;99087.22;;;13.70;81.47
22743;BME280;11538;48.884;8.696;2023-05-24T04:36:03;99089.31;;;13.73;81.21
22743;BME280;11538;48.884;8.696;2023-05-24T04:38:30;99096.84;;;13.68;81.68
22743;BME280;11538;48.884;8.696;2023-05-24T04:41:00;99095.72;;;13.69;81.81
22743;BME280;11538;48.884;8.696;2023-05-24T04:43:28;99098.94;;;13.71;82.79
22743;BME280;11538;48.884;8.696;2023-05-24T04:45:55;99103.16;;;13.77;81.81
22743;BME280;11538;48.884;8.696;2023-05-24T04:48:27;99101.81;;;13.66;81.49
22743;BME280;11538;48.884;8.696;2023-05-24T04:50:55;99108.09;;;13.75;81.83
22743;BME280;11538;48.884;8.696;2023-05-24T04:53:23;99111.06;;;13.87;80.21
22743;BME280;11538;48.884;8.696;2023-05-24T04:55:53;99109.31;;;13.92;80.70
22743;BME280;11538;48.884;8.696;2023-05-24T04:58:21;99116.56;;;13.96;80.46
22743;BME280;11538;48.884;8.696;2023-05-24T05:00:48;99113.50;;;13.98;79.13
22743;BME280;11538;48.884;8.696;2023-05-24T05:03:15;99117.63;;;13.86;78.81
22743;BME280;11538;48.884;8.696;2023-05-24T05:05:42;99118.03;;;13.71;79.51
22743;BME280;11538;48.884;8.696;2023-05-24T05:08:10;99116.91;;;13.72;79.57
22743;BME280;11538;48.884;8.696;2023-05-24T05:10:37;99123.66;;;13.74;78.99
22743;BME280;11538;48.884;8.696;2023-05-24T05:13:04;99117.69;;;13.72;77.54
22743;BME280;11538;48.884;8.696;2023-05-24T05:15:30;99129.06;;;13.66;77.75
22743;BME280;11538;48.884;8.696;2023-05-24T05:17:58;99118.09;;;13.57;77.91
22743;BME280;11538;48.884;8.696;2023-05-24T05:20:27;99117.66;;;13.64;77.56
22743;BME280;11538;48.884;8.696;2023-05-24T05:22:55;99123.06;;;13.55;77.71
22743;BME280;11538;48.884;8.696;2023-05-24T05:25:22;99128.34;;;13.51;77.83
22743;BME280;11538;48.884;8.696;2023-05-24T05:27:50;99116.50;;;13.56;78.58
22743;BME280;11538;48.884;8.696;2023-05-24T05:30:16;99115.72;;;13.64;77.88
22743;BME280;11538;48.884;8.696;2023-05-24T05:32:44;99116.22;;;13.66;77.83
22743;BME280;11538;48.884;8.696;2023-05-24T05:35:11;99109.97;;;13.66;76.34
22743;BME280;11538;48.884;8.696;2023-05-24T05:37:41;99113.47;;;13.57;76.35
22743;BME280;11538;48.884;8.696;2023-05-24T05:40:10;99108.19;;;13.61;77.06
22743;BME280;11538;48.884;8.696;2023-05-24T05:42:37;99113.00;;;13.64;76.80
22743;BME280;11538;48.884;8.696;2023-05-24T05:45:04;99110.13;;;13.60;76.71
22743;BME280;11538;48.884;8.696;2023-05-24T05:47:31;99116.19;;;13.57;76.85
22743;BME280;11538;48.884;8.696;2023-05-24T05:49:58;99110.75;;;13.57;77.06
22743;BME280;11538;48.884;8.696;2023-05-24T05:52:25;99110.69;;;13.49;77.08
22743;BME280;11538;48.884;8.696;2023-05-24T05:54:54;99106.34;;;13.48;76.95
22743;BME280;11538;48.884;8.696;2023-05-24T05:57:21;99112.97;;;13.55;77.70
22743;BME280;11538;48.884;8.696;2023-05-24T05:59:50;99105.16;;;13.63;76.70
22743;BME280;11538;48.884;8.696;2023-05-24T06:02:17;99101.44;;;13.58;76.76
22743;BME280;11538;48.884;8.696;2023-05-24T06:04:50;99105.28;;;13.57;77.26
22743;BME280;11538;48.884;8.696;2023-05-24T06:07:17;99107.06;;;13.62;76.96
22743;BME280;11538;48.884;8.696;2023-05-24T06:09:44;99116.06;;;13.63;76.66
22743;BME280;11538;48.884;8.696;2023-05-24T06:12:12;99113.81;;;13.65;77.06
22743;BME280;11538;48.884;8.696;2023-05-24T06:14:39;99107.75;;;13.68;76.52
22743;BME280;11538;48.884;8.696;2023-05-24T06:17:06;99103.06;;;13.59;76.09
22743;BME280;11538;48.884;8.696;2023-05-24T06:19:33;99104.66;;;13.60;76.78
22743;BME280;11538;48.884;8.696;2023-05-24T06:22:00;99106.63;;;13.69;76.24
22743;BME280;11538;48.884;8.696;2023-05-24T06:24:27;99106.00;;;13.72;76.07
22743;BME280;11538;48.884;8.696;2023-05-24T06:26:54;99107.63;;;13.73;75.65
22743;BME280;11538;48.884;8.696;2023-05-24T06:29:21;99113.59;;;13.84;75.24
22743;BME280;11538;48.884;8.696;2023-05-24T06:31:50;99111.22;;;13.91;74.64
22743;BME280;11538;48.884;8.696;2023-05-24T06:34:18;99117.28;;;13.79;75.36
22743;BME280;11538;48.884;8.696;2023-05-24T06:36:48;99117.28;;;13.88;75.02
22743;BME280;11538;48.884;8.696;2023-05-24T06:39:17;99128.03;;;13.84;75.41
22743;BME280;11538;48.884;8.696;2023-05-24T06:41:44;99131.25;;;13.86;74.81
22743;BME280;11538;48.884;8.696;2023-05-24T06:44:12;99132.66;;;13.75;75.30
22743;BME280;11538;48.884;8.696;2023-05-24T06:46:39;99129.94;;;13.84;75.13
22743;BME280;11538;48.884;8.696;2023-05-24T06:49:06;99136.13;;;13.98;74.56
22743;BME280;11538;48.884;8.696;2023-05-24T06:51:34;99143.56;;;14.07;75.60
22743;BME280;11538;48.884;8.696;2023-05-24T06:54:01;99144.22;;;14.12;74.05
22743;BME280;11538;48.884;8.696;2023-05-24T06:56:28;99138.94;;;14.16;73.21
22743;BME280;11538;48.884;8.696;2023-05-24T06:58:57;99150.00;;;14.11;72.92
22743;BME280;11538;48.884;8.696;2023-05-24T07:01:24;99153.84;;;14.10;74.36
22743;BME280;11538;48.884;8.696;2023-05-24T07:03:51;99154.81;;;14.14;74.24
22743;BME280;11538;48.884;8.696;2023-05-24T07:06:18;99158.69;;;14.22;74.55
22743;BME280;11538;48.884;8.696;2023-05-24T07:08:45;99165.47;;;14.33;73.73
22743;BME280;11538;48.884;8.696;2023-05-24T07:11:14;99168.38;;;14.37;73.77
22743;BME280;11538;48.884;8.696;2023-05-24T07:13:41;99168.59;;;14.49;73.01
22743;BME280;11538;48.884;8.696;2023-05-24T07:16:08;99167.94;;;14.52;72.48
22743;BME280;11538;48.884;8.696;2023-05-24T07:18:35;99167.31;;;14.55;72.60
22743;BME280;11538;48.884;8.696;2023-05-24T07:21:02;99169.22;;;14.55;72.35
22743;BME280;11538;48.884;8.696;2023-05-24T07:23:29;99173.56;;;14.56;72.12
22743;BME280;11538;48.884;8.696;2023-05-24T07:25:56;99182.75;;;14.60;72.24
22743;BME280;11538;48.884;8.696;2023-05-24T07:28:23;99180.41;;;14.76;71.09
22743;BME280;11538;48.884;8.696;2023-05-24T07:30:50;99175.56;;;14.73;70.75
22743;BME280;11538;48.884;8.696;2023-05-24T07:33:18;99173.97;;;14.72;70.81
22743;BME280;11538;48.884;8.696;2023-05-24T07:35:45;99170.13;;;14.73;70.69
22743;BME280;11538;48.884;8.696;2023-05-24T07:38:20;99177.94;;;14.66;70.86
22743;BME280;11538;48.884;8.696;2023-05-24T07:40:47;99183.72;;;14.64;71.91
22743;BME280;11538;48.884;8.696;2023-05-24T07:43:14;99184.09;;;14.71;70.30
22743;BME280;11538;48.884;8.696;2023-05-24T07:45:41;99183.38;;;14.57;70.21
22743;BME280;11538;48.884;8.696;2023-05-24T07:48:08;99186.09;;;14.48;71.41
22743;BME280;11538;48.884;8.696;2023-05-24T07:50:35;99188.81;;;14.57;71.65
22743;BME280;11538;48.884;8.696;2023-05-24T07:53:02;99185.50;;;14.69;71.33
22743;BME280;11538;48.884;8.696;2023-05-24T07:55:30;99189.41;;;14.76;70.62
22743;BME280;11538;48.884;8.696;2023-05-24T07:57:57;99200.34;;;14.85;70.23
22743;BME280;11538;48.884;8.696;2023-05-24T08:00:27;99201.66;;;14.88;69.82
22743;BME280;11538;48.884;8.696;2023-05-24T08:02:55;99195.53;;;14.91;69.68
22743;BME280;11538;48.884;8.696;2023-05-24T08:05:23;99190.56;;;14.93;69.56
22743;BME280;11538;48.884;8.696;2023-05-24T08:07:50;99191.03;;;14.86;69.06
22743;BME280;11538;48.884;8.696;2023-05-24T08:10:17;99200.47;;;14.71;70.70
22743;BME280;11538;48.884;8.696;2023-05-24T08:12:44;99203.06;;;14.76;70.24
22743;BME280;11538;48.884;8.696;2023-05-24T08:15:11;99200.53;;;14.89;69.82
22743;BME280;11538;48.884;8.696;2023-05-24T08:17:39;99194.91;;;15.03;69.72
22743;BME280;11538;48.884;8.696;2023-05-24T08:20:07;99204.72;;;15.13;69.29
22743;BME280;11538;48.884;8.696;2023-05-24T08:22:40;99196.53;;;15.21;68.61
22743;BME280;11538;48.884;8.696;2023-05-24T08:25:09;99202.97;;;15.34;68.29
22743;BME280;11538;48.884;8.696;2023-05-24T08:27:37;99203.94;;;15.47;68.04
22743;BME280;11538;48.884;8.696;2023-05-24T08:30:05;99205.56;;;15.48;67.36
22743;BME280;11538;48.884;8.696;2023-05-24T08:32:33;99205.56;;;15.48;67.21
22743;BME280;11538;48.884;8.696;2023-05-24T08:35:00;99207.31;;;15.35;67.18
22743;BME280;11538;48.884;8.696;2023-05-24T08:37:46;99208.13;;;15.27;67.65
22743;BME280;11538;48.884;8.696;2023-05-24T08:40:13;99212.63;;;15.23;68.49
22743;BME280;11538;48.884;8.696;2023-05-24T08:42:41;99205.72;;;15.26;68.18
22743;BME280;11538;48.884;8.696;2023-05-24T08:45:11;99204.13;;;15.25;68.53
22743;BME280;11538;48.884;8.696;2023-05-24T08:47:40;99209.59;;;15.25;67.94
22743;BME280;11538;48.884;8.696;2023-05-24T08:50:07;99205.53;;;15.13;67.74
22743;BME280;11538;48.884;8.696;2023-05-24T08:52:35;99211.81;;;15.14;68.38
22743;BME280;11538;48.884;8.696;2023-05-24T08:55:06;99206.66;;;15.21;68.17
22743;BME280;11538;48.884;8.696;2023-05-24T08:57:35;99209.59;;;15.25;66.88
22743;BME280;11538;48.884;8.696;2023-05-24T09:00:10;99201.50;;;15.19;66.92
22743;BME280;11538;48.884;8.696;2023-05-24T09:02:40;99206.81;;;15.16;67.78
22743;BME280;11538;48.884;8.696;2023-05-24T09:05:13;99206.66;;;15.12;67.21
22743;BME280;11538;48.884;8.696;2023-05-24T09:07:46;99203.75;;;15.09;67.11
22743;BME280;11538;48.884;8.696;2023-05-24T09:10:14;99202.81;;;15.04;67.39
22743;BME280;11538;48.884;8.696;2023-05-24T09:12:46;99211.94;;;14.91;67.79
22743;BME280;11538;48.884;8.696;2023-05-24T09:15:15;99201.31;;;14.89;68.18
22743;BME280;11538;48.884;8.696;2023-05-24T09:17:44;99195.72;;;15.03;68.05
22743;BME280;11538;48.884;8.696;2023-05-24T09:20:12;99201.34;;;15.07;68.71
22743;BME280;11538;48.884;8.696;2023-05-24T09:22:41;99207.78;;;15.20;67.60
22743;BME280;11538;48.884;8.696;2023-05-24T09:25:12;99205.38;;;15.10;67.39
22743;BME280;11538;48.884;8.696;2023-05-24T09:27:40;99202.94;;;15.08;67.55
22743;BME280;11538;48.884;8.696;2023-05-24T09:30:09;99204.56;;;15.18;66.83
22743;BME280;11538;48.884;8.696;2023-05-24T09:32:38;99214.38;;;15.19;66.71
22743;BME280;11538;48.884;8.696;2023-05-24T09:35:09;99222.13;;;15.26;66.68
22743;BME280;11538;48.884;8.696;2023-05-24T09:37:36;99212.47;;;15.28;66.06
22743;BME280;11538;48.884;8.696;2023-05-24T09:40:17;99214.56;;;15.40;65.72
22743;BME280;11538;48.884;8.696;2023-05-24T09:42:46;99216.63;;;15.70;64.39
22743;BME280;11538;48.884;8.696;2023-05-24T09:45:15;99214.38;;;15.89;62.47
22743;BME280;11538;48.884;8.696;2023-05-24T09:47:43;99212.59;;;15.85;62.58
22743;BME280;11538;48.884;8.696;2023-05-24T09:50:14;99212.28;;;15.95;62.10
22743;BME280;11538;48.884;8.696;2023-05-24T09:52:42;99210.66;;;16.03;61.50
22743;BME280;11538;48.884;8.696;2023-05-24T09:55:11;99206.88;;;16.34;60.24
22743;BME280;11538;48.884;8.696;2023-05-24T09:57:38;99204.88;;;16.82;57.37
22743;BME280;11538;48.884;8.696;2023-05-24T10:00:09;99206.28;;;16.88;57.88
22743;BME280;11538;48.884;8.696;2023-05-24T10:02:44;99211.22;;;17.04;57.75
22743;BME280;11538;48.884;8.696;2023-05-24T10:05:17;99207.72;;;17.16;57.55
22743;BME280;11538;48.884;8.696;2023-05-24T10:07:45;99201.19;;;17.08;55.33
22743;BME280;11538;48.884;8.696;2023-05-24T10:10:12;99201.31;;;16.81;56.28
22743;BME280;11538;48.884;8.696;2023-05-24T10:12:40;99203.69;;;16.62;57.38
22743;BME280;11538;48.884;8.696;2023-05-24T10:15:10;99202.09;;;16.52;58.61
22743;BME280;11538;48.884;8.696;2023-05-24T10:17:40;99208.97;;;16.67;58.39
22743;BME280;11538;48.884;8.696;2023-05-24T10:20:07;99206.19;;;16.76;58.62
22743;BME280;11538;48.884;8.696;2023-05-24T10:22:51;99211.41;;;16.90;58.12
22743;BME280;11538;48.884;8.696;2023-05-24T10:25:23;99203.66;;;16.92;58.03
22743;BME280;11538;48.884;8.696;2023-05-24T10:28:00;99201.19;;;17.08;56.92
22743;BME280;11538;48.884;8.696;2023-05-24T10:30:53;99206.53;;;17.25;56.33
22743;BME280;11538;48.884;8.696;2023-05-24T10:33:30;99196.72;;;17.46;54.74
22743;BME280;11538;48.884;8.696;2023-05-24T10:35:58;99180.81;;;18.06;53.36
22743;BME280;11538;48.884;8.696;2023-05-24T10:38:25;99181.31;;;18.58;49.69
22743;BME280;11538;48.884;8.696;2023-05-24T10:40:52;99177.19;;;18.39;55.86
22743;BME280;11538;48.884;8.696;2023-05-24T10:43:20;99179.09;;;18.14;53.13
22743;BME280;11538;48.884;8.696;2023-05-24T10:45:49;99170.31;;;18.21;52.03
22743;BME280;11538;48.884;8.696;2023-05-24T10:50:49;99155.22;;;17.81;52.45
22743;BME280;11538;48.884;8.696;2023-05-24T10:53:20;99153.03;;;17.74;53.62
22743;BME280;11538;48.884;8.696;2023-05-24T10:56:08;99175.19;;;17.69;50.40
22743;BME280;11538;48.884;8.696;2023-05-24T11:01:31;99160.97;;;17.88;48.12
22743;BME280;11538;48.884;8.696;2023-05-24T11:04:15;99159.88;;;18.14;47.73
22743;BME280;11538;48.884;8.696;2023-05-24T11:06:55;99166.06;;;18.23;47.17
22743;BME280;11538;48.884;8.696;2023-05-24T11:09:23;99167.00;;;18.27;46.67
22743;BME280;11538;48.884;8.696;2023-05-24T11:11:55;99162.84;;;19.08;46.29
22743;BME280;11538;48.884;8.696;2023-05-24T11:14:27;99168.72;;;19.80;44.47
22743;BME280;11538;48.884;8.696;2023-05-24T11:16:57;99159.28;;;20.57;43.80
22743;BME280;11538;48.884;8.696;2023-05-24T11:19:37;99156.94;;;21.11;41.48
22743;BME280;11538;48.884;8.696;2023-05-24T11:22:07;99156.56;;;21.32;41.38
22743;BME280;11538;48.884;8.696;2023-05-24T11:24:35;99157.97;;;21.23;40.17
22743;BME280;11538;48.884;8.696;2023-05-24T11:27:05;99149.00;;;21.69;39.81
22743;BME280;11538;48.884;8.696;2023-05-24T11:29:41;99151.06;;;21.95;39.01
22743;BME280;11538;48.884;8.696;2023-05-24T11:32:09;99146.63;;;22.37;38.37
22743;BME280;11538;48.884;8.696;2023-05-24T11:34:47;99150.56;;;22.36;39.51
22743;BME280;11538;48.884;8.696;2023-05-24T11:37:15;99153.16;;;22.25;41.03
22743;BME280;11538;48.884;8.696;2023-05-24T11:39:50;99145.22;;;21.57;40.60
22743;BME280;11538;48.884;8.696;2023-05-24T11:42:21;99152.56;;;20.91;42.69
22743;BME280;11538;48.884;8.696;2023-05-24T11:44:52;99140.47;;;20.27;44.20
22743;BME280;11538;48.884;8.696;2023-05-24T11:47:20;99152.28;;;19.96;44.64
22743;BME280;11538;48.884;8.696;2023-05-24T11:49:51;99146.19;;;19.74;44.87
22743;BME280;11538;48.884;8.696;2023-05-24T11:52:18;99137.91;;;20.70;41.92
22743;BME280;11538;48.884;8.696;2023-05-24T11:54:45;99140.38;;;21.70;40.38
22743;BME280;11538;48.884;8.696;2023-05-24T11:57:13;99145.16;;;21.54;39.02
22743;BME280;11538;48.884;8.696;2023-05-24T11:59:42;99133.56;;;20.69;40.64
22743;BME280;11538;48.884;8.696;2023-05-24T12:02:10;99145.16;;;20.59;41.70
22743;BME280;11538;48.884;8.696;2023-05-24T12:04:38;99135.88;;;21.03;41.34
22743;BME280;11538;48.884;8.696;2023-05-24T12:07:10;99130.09;;;22.41;38.13
22743;BME280;11538;48.884;8.696;2023-05-24T12:09:38;99128.03;;;23.18;36.34
22743;BME280;11538;48.884;8.696;2023-05-24T12:12:05;99134.91;;;23.66;36.20
22743;BME280;11538;48.884;8.696;2023-05-24T12:14:37;99123.09;;;24.11;33.28
22743;BME280;11538;48.884;8.696;2023-05-24T12:17:04;99129.56;;;24.33;32.77
22743;BME280;11538;48.884;8.696;2023-05-24T12:19:32;99125.84;;;24.63;32.10
22743;BME280;11538;48.884;8.696;2023-05-24T12:22:05;99122.41;;;24.80;31.75
22743;BME280;11538;48.884;8.696;2023-05-24T12:24:34;99114.78;;;24.70;31.21
22743;BME280;11538;48.884;8.696;2023-05-24T12:27:03;99107.91;;;24.46;31.94
22743;BME280;11538;48.884;8.696;2023-05-24T12:29:39;99124.44;;;24.91;32.32
22743;BME280;11538;48.884;8.696;2023-05-24T12:32:11;99114.53;;;24.30;32.95
22743;BME280;11538;48.884;8.696;2023-05-24T12:34:42;99119.13;;;24.12;32.11
22743;BME280;11538;48.884;8.696;2023-05-24T12:37:14;99123.06;;;24.66;30.94
22743;BME280;11538;48.884;8.696;2023-05-24T12:39:42;99112.66;;;25.19;30.90
22743;BME280;11538;48.884;8.696;2023-05-24T12:42:11;99102.38;;;25.23;30.64
22743;BME280;11538;48.884;8.696;2023-05-24T12:44:40;99104.34;;;25.30;30.75
22743;BME280;11538;48.884;8.696;2023-05-24T12:47:08;99107.16;;;25.34;30.52
22743;BME280;11538;48.884;8.696;2023-05-24T12:49:35;99104.66;;;25.07;31.71
22743;BME280;11538;48.884;8.696;2023-05-24T12:52:02;99098.88;;;25.48;30.66
22743;BME280;11538;48.884;8.696;2023-05-24T12:54:30;99098.09;;;25.59;30.17
22743;BME280;11538;48.884;8.696;2023-05-24T12:56:58;99096.91;;;25.70;30.80
22743;BME280;11538;48.884;8.696;2023-05-24T12:59:29;99099.31;;;26.08;29.09
22743;BME280;11538;48.884;8.696;2023-05-24T13:01:57;99100.94;;;26.27;28.39
22743;BME280;11538;48.884;8.696;2023-05-24T13:04:24;99104.50;;;26.32;29.30
22743;BME280;11538;48.884;8.696;2023-05-24T13:06:53;99090.59;;;26.10;28.04
22743;BME280;11538;48.884;8.696;2023-05-24T13:09:20;99098.16;;;26.17;28.29
22743;BME280;11538;48.884;8.696;2023-05-24T13:11:49;99084.25;;;26.02;27.75
22743;BME280;11538;48.884;8.696;2023-05-24T13:14:17;99082.66;;;25.97;28.38
22743;BME280;11538;48.884;8.696;2023-05-24T13:16:45;99079.09;;;25.86;29.06
22743;BME280;11538;48.884;8.696;2023-05-24T13:19:13;99076.69;;;25.92;28.46
22743;BME280;11538;48.884;8.696;2023-05-24T13:21:39;99083.84;;;26.04;28.49